Date,TemperatureHighF,TemperatureAvgF,TemperatureLowF,DewpointHighF,DewpointAvgF,DewpointLowF,HumidityHigh,HumidityAvg,HumidityLow,PressureMaxIn,PressureMinIn,WindSpeedMaxMPH,WindSpeedAvgMPH,GustSpeedMaxMPH,PrecipitationSumIn
2013-10-1,72.9,57.9,46.0,52.8,48.4,44.5,98,73,42,29.94,29.80,10,2,16,0.00
2013-10-2,71.3,60.5,52.3,56.7,49.7,39.6,100,71,41,29.88,29.77,11,3,17,0.00
2013-10-3,70.6,57.9,48.9,48.3,41.0,38.2,74,55,34,30.06,29.91,8,2,13,0.00
2013-10-4,65.1,55.5,46.1,47.6,42.1,37.2,84,62,42,30.06,29.94,5,1,10,0.00
2013-10-5,62.7,54.4,50.0,46.5,40.5,31.0,76,60,44,30.09,30.00,5,1,7,0.00
2013-10-6,53.8,50.2,48.0,48.6,36.9,30.3,97,62,48,30.12,30.00,5,1,9,0.08
2013-10-7,69.1,58.0,48.6,61.8,55.0,46.7,100,91,67,30.03,29.59,13,3,27,0.50
2013-10-8,58.5,47.3,37.8,49.5,35.7,27.0,100,67,35,30.33,29.83,13,4,20,0.00
2013-10-9,66.2,46.4,33.1,43.4,35.4,31.8,100,71,33,30.42,30.27,6,1,12,0.00
2013-10-10,68.2,50.0,37.0,45.7,39.5,34.8,100,70,38,30.27,30.12,4,1,6,0.00
2013-10-11,74.8,53.4,38.2,47.7,38.4,32.4,96,61,27,30.21,30.12,4,1,6,0.00
2013-10-12,74.2,57.2,46.7,50.0,45.9,36.0,93,69,37,30.39,29.92,10,1,18,0.00
2013-10-13,64.6,52.1,41.6,49.3,46.3,41.1,100,82,50,30.42,30.30,4,1,8,0.00
2013-10-14,57.9,50.3,41.6,52.0,48.4,41.6,100,94,67,30.33,30.24,4,1,11,0.08
2013-10-15,68.9,55.3,44.8,57.8,50.0,44.8,100,85,50,30.30,30.12,4,1,10,0.00
2013-10-16,69.7,54.7,46.5,55.0,47.4,39.3,100,80,36,30.15,29.85,5,1,10,0.00
2013-10-17,67.6,54.7,47.2,56.3,46.8,40.1,100,78,38,29.92,29.71,10,2,18,0.04
2013-10-18,63.3,53.8,41.5,52.1,43.9,31.4,100,71,47,29.92,29.68,10,3,18,22.45
2013-10-19,63.5,50.1,37.1,40.2,36.7,31.6,90,62,37,29.91,29.71,8,2,12,0.00
2013-10-20,58.5,47.4,39.2,46.4,33.7,21.5,98,63,34,29.97,29.65,8,3,17,0.12
2013-10-21,61.3,46.1,31.5,38.3,34.2,28.0,99,66,40,30.06,29.85,6,2,11,0.00
2013-10-22,53.2,45.5,32.4,46.5,37.2,27.8,100,74,57,29.85,29.62,6,2,17,0.09
2013-10-23,50.7,37.2,30.6,34.0,29.0,21.9,94,74,41,29.77,29.53,5,2,9,0.00
2013-10-24,43.9,35.8,26.4,30.6,25.5,19.1,86,67,43,29.77,29.59,6,3,14,0.00
2013-10-25,39.2,35.9,33.2,29.7,23.8,19.5,80,62,47,30.03,29.77,6,3,14,0.00
2013-10-26,41.1,35.4,28.6,32.3,25.4,20.0,88,67,46,30.03,29.77,5,2,13,0.00
2013-10-27,44.1,38.5,34.0,33.4,27.3,21.7,82,64,48,29.91,29.71,8,2,12,0.00
2013-10-28,43.8,35.3,27.5,33.8,23.8,15.7,83,62,45,30.30,29.91,8,3,18,0.00
2013-10-29,44.9,30.5,22.6,22.9,16.6,11.1,77,56,38,30.36,30.24,4,2,8,0.00
2013-10-30,38.7,32.1,27.0,27.7,20.1,13.7,80,59,49,30.24,30.06,4,1,9,0.00
2013-10-31,53.1,41.9,32.0,53.1,38.0,26.1,100,86,66,30.15,29.68,4,1,10,0.66